sensor_id;sensor_type;location;lat;lon;timestamp;temperature;humidity
40556;DHT22;26250;45.422;11.100;2022-11-21T07:22:19;7.10;98.80
40556;DHT22;26250;45.422;11.100;2022-11-21T07:25:32;7.00;99.90
40556;DHT22;26250;45.422;11.100;2022-11-21T07:33:09;7.20;99.90
40556;DHT22;26250;45.422;11.100;2022-11-21T07:35:41;7.20;99.90
40556;DHT22;26250;45.422;11.100;2022-11-21T07:38:15;7.30;99.90
40556;DHT22;26250;45.422;11.100;2022-11-21T07:43:57;7.20;99.90
40556;DHT22;26250;45.422;11.100;2022-11-21T07:46:37;7.10;99.90
40556;DHT22;26250;45.422;11.100;2022-11-21T07:49:21;7.20;99.90
40556;DHT22;26250;45.422;11.100;2022-11-21T07:51:55;7.30;99.90
40556;DHT22;26250;45.422;11.100;2022-11-21T07:54:38;7.40;99.90
40556;DHT22;26250;45.422;11.100;2022-11-21T07:57:08;7.40;99.90
40556;DHT22;26250;45.422;11.100;2022-11-21T07:59:59;7.40;99.90
40556;DHT22;26250;45.422;11.100;2022-11-21T08:03:09;7.50;99.90
40556;DHT22;26250;45.422;11.100;2022-11-21T08:10:17;7.80;99.90
40556;DHT22;26250;45.422;11.100;2022-11-21T08:16:02;8.00;99.90
40556;DHT22;26250;45.422;11.100;2022-11-21T08:23:04;8.00;99.90
40556;DHT22;26250;45.422;11.100;2022-11-21T08:25:52;8.10;99.90
40556;DHT22;26250;45.422;11.100;2022-11-21T08:29:02;8.10;99.90
40556;DHT22;26250;45.422;11.100;2022-11-21T08:31:35;8.30;99.90
40556;DHT22;26250;45.422;11.100;2022-11-21T08:38:54;8.50;99.90
40556;DHT22;26250;45.422;11.100;2022-11-21T08:46:33;8.70;99.80
40556;DHT22;26250;45.422;11.100;2022-11-21T08:49:07;8.80;99.40
40556;DHT22;26250;45.422;11.100;2022-11-21T08:51:59;8.80;99.60
40556;DHT22;26250;45.422;11.100;2022-11-21T08:54:44;8.80;99.60
40556;DHT22;26250;45.422;11.100;2022-11-21T08:58:01;8.90;99.70
40556;DHT22;26250;45.422;11.100;2022-11-21T09:05:42;9.00;98.90
40556;DHT22;26250;45.422;11.100;2022-11-21T09:08:26;9.10;98.70
40556;DHT22;26250;45.422;11.100;2022-11-21T09:11:15;9.20;98.70
40556;DHT22;26250;45.422;11.100;2022-11-21T09:13:58;9.20;98.70
40556;DHT22;26250;45.422;11.100;2022-11-21T09:17:09;9.10;98.90
40556;DHT22;26250;45.422;11.100;2022-11-21T09:38:57;9.60;98.00
40556;DHT22;26250;45.422;11.100;2022-11-21T09:41:54;9.70;97.90
40556;DHT22;26250;45.422;11.100;2022-11-21T09:47:57;9.70;98.00
40556;DHT22;26250;45.422;11.100;2022-11-21T09:58:38;9.80;98.00
40556;DHT22;26250;45.422;11.100;2022-11-21T10:01:18;9.90;98.00
40556;DHT22;26250;45.422;11.100;2022-11-21T10:03:54;9.90;97.90
40556;DHT22;26250;45.422;11.100;2022-11-21T10:18:49;10.10;98.30
40556;DHT22;26250;45.422;11.100;2022-11-21T10:21:51;10.10;98.60
40556;DHT22;26250;45.422;11.100;2022-11-21T10:32:38;10.10;98.90
40556;DHT22;26250;45.422;11.100;2022-11-21T10:40:53;10.20;98.50
40556;DHT22;26250;45.422;11.100;2022-11-21T10:46:59;10.30;98.70
40556;DHT22;26250;45.422;11.100;2022-11-21T10:53:04;10.20;98.90
40556;DHT22;26250;45.422;11.100;2022-11-21T10:56:18;10.20;98.90
40556;DHT22;26250;45.422;11.100;2022-11-21T11:07:28;10.30;99.10
40556;DHT22;26250;45.422;11.100;2022-11-21T11:10:21;10.40;99.00
40556;DHT22;26250;45.422;11.100;2022-11-21T11:16:48;10.30;99.10
40556;DHT22;26250;45.422;11.100;2022-11-21T11:19:31;10.30;99.40
40556;DHT22;26250;45.422;11.100;2022-11-21T11:22:28;10.30;99.60
40556;DHT22;26250;45.422;11.100;2022-11-21T11:25:03;10.40;99.60
40556;DHT22;26250;45.422;11.100;2022-11-21T11:28:36;10.30;99.60
40556;DHT22;26250;45.422;11.100;2022-11-21T11:31:40;10.30;99.60
40556;DHT22;26250;45.422;11.100;2022-11-21T11:34:15;10.40;99.50
40556;DHT22;26250;45.422;11.100;2022-11-21T11:40:51;10.40;99.60
40556;DHT22;26250;45.422;11.100;2022-11-21T11:48:09;10.70;99.40
40556;DHT22;26250;45.422;11.100;2022-11-21T11:51:47;10.70;99.00
40556;DHT22;26250;45.422;11.100;2022-11-21T11:54:38;10.70;99.00
40556;DHT22;26250;45.422;11.100;2022-11-21T11:57:20;10.70;99.30
40556;DHT22;26250;45.422;11.100;2022-11-21T12:04:31;10.90;99.50
40556;DHT22;26250;45.422;11.100;2022-11-21T12:11:01;10.90;99.30
40556;DHT22;26250;45.422;11.100;2022-11-21T12:20:47;11.00;99.10
40556;DHT22;26250;45.422;11.100;2022-11-21T12:33:24;11.20;99.90
40556;DHT22;26250;45.422;11.100;2022-11-21T12:39:18;11.20;99.90
40556;DHT22;26250;45.422;11.100;2022-11-21T13:09:49;11.30;99.60
40556;DHT22;26250;45.422;11.100;2022-11-21T13:13:44;11.20;99.20
40556;DHT22;26250;45.422;11.100;2022-11-21T13:16:29;11.30;99.30
40556;DHT22;26250;45.422;11.100;2022-11-21T13:23:41;11.30;99.30
40556;DHT22;26250;45.422;11.100;2022-11-21T13:29:12;11.40;99.30
40556;DHT22;26250;45.422;11.100;2022-11-21T13:31:43;11.40;99.80
40556;DHT22;26250;45.422;11.100;2022-11-21T13:34:45;11.50;99.50
40556;DHT22;26250;45.422;11.100;2022-11-21T13:38:06;11.50;99.10
40556;DHT22;26250;45.422;11.100;2022-11-21T13:45:38;11.40;99.40
40556;DHT22;26250;45.422;11.100;2022-11-21T14:10:54;11.10;99.90
40556;DHT22;26250;45.422;11.100;2022-11-21T14:13:48;11.00;99.90
40556;DHT22;26250;45.422;11.100;2022-11-21T14:24:29;11.00;99.90
40556;DHT22;26250;45.422;11.100;2022-11-21T14:27:06;10.90;99.90
40556;DHT22;26250;45.422;11.100;2022-11-21T14:44:25;11.00;99.90
40556;DHT22;26250;45.422;11.100;2022-11-21T14:47:21;10.90;99.90
40556;DHT22;26250;45.422;11.100;2022-11-21T14:50:29;10.90;99.90
40556;DHT22;26250;45.422;11.100;2022-11-21T14:53:39;10.90;99.90
40556;DHT22;26250;45.422;11.100;2022-11-21T15:04:14;10.90;99.90
40556;DHT22;26250;45.422;11.100;2022-11-21T15:06:51;10.80;99.90
40556;DHT22;26250;45.422;11.100;2022-11-21T15:09:36;10.80;99.90
40556;DHT22;26250;45.422;11.100;2022-11-21T15:15:47;10.80;99.90
40556;DHT22;26250;45.422;11.100;2022-11-21T15:18:24;10.80;99.90
40556;DHT22;26250;45.422;11.100;2022-11-21T15:21:05;10.70;99.90
40556;DHT22;26250;45.422;11.100;2022-11-21T15:23:42;10.80;99.90
40556;DHT22;26250;45.422;11.100;2022-11-21T15:26:32;10.70;99.90
40556;DHT22;26250;45.422;11.100;2022-11-21T15:29:30;10.70;99.90
40556;DHT22;26250;45.422;11.100;2022-11-21T15:32:11;10.70;99.90
40556;DHT22;26250;45.422;11.100;2022-11-21T15:34:53;10.60;99.90
40556;DHT22;26250;45.422;11.100;2022-11-21T15:37:28;10.60;99.90
40556;DHT22;26250;45.422;11.100;2022-11-21T15:40:02;10.60;99.90
40556;DHT22;26250;45.422;11.100;2022-11-21T15:47:52;10.50;99.90
40556;DHT22;26250;45.422;11.100;2022-11-21T15:50:34;10.50;99.90
40556;DHT22;26250;45.422;11.100;2022-11-21T15:53:19;10.40;99.90
40556;DHT22;26250;45.422;11.100;2022-11-21T15:56:11;10.20;99.90
40556;DHT22;26250;45.422;11.100;2022-11-21T15:58:54;10.20;99.90
40556;DHT22;26250;45.422;11.100;2022-11-21T16:01:29;10.20;99.90
40556;DHT22;26250;45.422;11.100;2022-11-21T16:04:05;10.20;99.90
40556;DHT22;26250;45.422;11.100;2022-11-21T16:06:45;10.20;99.90
40556;DHT22;26250;45.422;11.100;2022-11-21T16:09:35;10.20;99.90
40556;DHT22;26250;45.422;11.100;2022-11-21T16:12:09;10.00;99.90
40556;DHT22;26250;45.422;11.100;2022-11-21T16:14:40;9.90;99.90
40556;DHT22;26250;45.422;11.100;2022-11-21T16:17:08;9.80;99.90
40556;DHT22;26250;45.422;11.100;2022-11-21T16:20:04;9.90;99.90
40556;DHT22;26250;45.422;11.100;2022-11-21T16:22:32;10.00;99.90
40556;DHT22;26250;45.422;11.100;2022-11-21T16:25:15;9.90;99.90
40556;DHT22;26250;45.422;11.100;2022-11-21T16:27:54;9.90;99.90
40556;DHT22;26250;45.422;11.100;2022-11-21T16:30:40;9.90;99.90
40556;DHT22;26250;45.422;11.100;2022-11-21T16:33:33;9.90;99.90
40556;DHT22;26250;45.422;11.100;2022-11-21T16:36:18;9.90;99.90
40556;DHT22;26250;45.422;11.100;2022-11-21T16:39:05;9.80;99.90
40556;DHT22;26250;45.422;11.100;2022-11-21T16:41:55;9.70;99.90
40556;DHT22;26250;45.422;11.100;2022-11-21T16:44:33;9.60;99.90
40556;DHT22;26250;45.422;11.100;2022-11-21T16:47:06;9.60;99.90
40556;DHT22;26250;45.422;11.100;2022-11-21T16:49:41;9.60;99.80
40556;DHT22;26250;45.422;11.100;2022-11-21T16:52:14;9.60;99.90
40556;DHT22;26250;45.422;11.100;2022-11-21T16:54:48;9.60;99.50
40556;DHT22;26250;45.422;11.100;2022-11-21T16:57:16;9.60;99.40
40556;DHT22;26250;45.422;11.100;2022-11-21T16:59:44;9.70;99.30
40556;DHT22;26250;45.422;11.100;2022-11-21T17:02:28;9.80;99.10
40556;DHT22;26250;45.422;11.100;2022-11-21T17:05:08;9.70;99.10
40556;DHT22;26250;45.422;11.100;2022-11-21T17:07:39;9.60;99.20
40556;DHT22;26250;45.422;11.100;2022-11-21T17:10:07;9.60;99.20
40556;DHT22;26250;45.422;11.100;2022-11-21T17:12:39;9.60;98.90
40556;DHT22;26250;45.422;11.100;2022-11-21T17:15:34;9.60;98.80
40556;DHT22;26250;45.422;11.100;2022-11-21T17:18:07;9.70;98.80
40556;DHT22;26250;45.422;11.100;2022-11-21T17:20:35;9.70;98.70
40556;DHT22;26250;45.422;11.100;2022-11-21T17:23:05;9.70;98.60
40556;DHT22;26250;45.422;11.100;2022-11-21T17:25:36;9.70;98.70
40556;DHT22;26250;45.422;11.100;2022-11-21T17:28:10;9.70;98.70
40556;DHT22;26250;45.422;11.100;2022-11-21T17:30:38;9.70;98.50
40556;DHT22;26250;45.422;11.100;2022-11-21T17:33:21;9.70;98.30
40556;DHT22;26250;45.422;11.100;2022-11-21T17:36:08;9.80;98.20
40556;DHT22;26250;45.422;11.100;2022-11-21T17:38:45;9.80;98.10
40556;DHT22;26250;45.422;11.100;2022-11-21T17:41:36;9.80;98.20
40556;DHT22;26250;45.422;11.100;2022-11-21T17:44:13;9.80;97.90
40556;DHT22;26250;45.422;11.100;2022-11-21T17:46:47;9.80;97.80
40556;DHT22;26250;45.422;11.100;2022-11-21T17:49:20;9.80;97.60
40556;DHT22;26250;45.422;11.100;2022-11-21T17:51:55;9.90;97.40
40556;DHT22;26250;45.422;11.100;2022-11-21T17:54:23;9.90;97.50
40556;DHT22;26250;45.422;11.100;2022-11-21T17:56:50;9.90;97.50
40556;DHT22;26250;45.422;11.100;2022-11-21T17:59:27;9.90;97.30
40556;DHT22;26250;45.422;11.100;2022-11-21T18:02:22;9.90;97.30
40556;DHT22;26250;45.422;11.100;2022-11-21T18:05:12;9.90;97.10
40556;DHT22;26250;45.422;11.100;2022-11-21T18:07:45;10.00;96.90
40556;DHT22;26250;45.422;11.100;2022-11-21T18:10:27;10.10;96.80
40556;DHT22;26250;45.422;11.100;2022-11-21T18:13:14;10.10;96.80
40556;DHT22;26250;45.422;11.100;2022-11-21T18:15:49;10.10;96.70
40556;DHT22;26250;45.422;11.100;2022-11-21T18:18:28;10.10;96.50
40556;DHT22;26250;45.422;11.100;2022-11-21T18:21:15;10.10;96.60
40556;DHT22;26250;45.422;11.100;2022-11-21T18:23:53;10.20;96.60
40556;DHT22;26250;45.422;11.100;2022-11-21T18:26:29;10.10;96.60
40556;DHT22;26250;45.422;11.100;2022-11-21T18:28:59;10.20;96.70
40556;DHT22;26250;45.422;11.100;2022-11-21T18:31:48;10.20;96.60
40556;DHT22;26250;45.422;11.100;2022-11-21T18:34:16;10.20;96.60
40556;DHT22;26250;45.422;11.100;2022-11-21T18:36:44;10.20;96.60
40556;DHT22;26250;45.422;11.100;2022-11-21T18:39:32;10.20;96.60
40556;DHT22;26250;45.422;11.100;2022-11-21T18:42:06;10.20;96.60
40556;DHT22;26250;45.422;11.100;2022-11-21T18:44:38;10.20;96.50
40556;DHT22;26250;45.422;11.100;2022-11-21T18:47:09;10.20;96.40
40556;DHT22;26250;45.422;11.100;2022-11-21T18:49:50;10.20;96.40
40556;DHT22;26250;45.422;11.100;2022-11-21T18:52:21;10.20;96.40
40556;DHT22;26250;45.422;11.100;2022-11-21T18:54:51;10.20;96.30
40556;DHT22;26250;45.422;11.100;2022-11-21T18:57:21;10.30;96.50
40556;DHT22;26250;45.422;11.100;2022-11-21T18:59:54;10.30;96.30
40556;DHT22;26250;45.422;11.100;2022-11-21T19:02:32;10.30;96.40
40556;DHT22;26250;45.422;11.100;2022-11-21T19:05:15;10.30;96.50
40556;DHT22;26250;45.422;11.100;2022-11-21T19:08:08;10.30;96.50
40556;DHT22;26250;45.422;11.100;2022-11-21T19:10:47;10.30;96.10
40556;DHT22;26250;45.422;11.100;2022-11-21T19:13:18;10.40;96.30
40556;DHT22;26250;45.422;11.100;2022-11-21T19:15:46;10.40;96.10
40556;DHT22;26250;45.422;11.100;2022-11-21T19:18:13;10.30;96.10
40556;DHT22;26250;45.422;11.100;2022-11-21T19:20:46;10.40;96.30
40556;DHT22;26250;45.422;11.100;2022-11-21T19:23:14;10.40;95.80
40556;DHT22;26250;45.422;11.100;2022-11-21T19:26:00;10.40;96.10
40556;DHT22;26250;45.422;11.100;2022-11-21T19:28:31;10.40;96.00
40556;DHT22;26250;45.422;11.100;2022-11-21T19:31:04;10.40;96.30
40556;DHT22;26250;45.422;11.100;2022-11-21T19:33:43;10.40;96.00
40556;DHT22;26250;45.422;11.100;2022-11-21T19:36:16;10.50;95.80
40556;DHT22;26250;45.422;11.100;2022-11-21T19:38:48;10.40;95.60
40556;DHT22;26250;45.422;11.100;2022-11-21T19:41:35;10.50;95.70
40556;DHT22;26250;45.422;11.100;2022-11-21T19:44:09;10.50;95.50
40556;DHT22;26250;45.422;11.100;2022-11-21T19:47:17;10.50;95.50
40556;DHT22;26250;45.422;11.100;2022-11-21T19:50:20;10.50;95.50
40556;DHT22;26250;45.422;11.100;2022-11-21T19:53:00;10.50;95.30
40556;DHT22;26250;45.422;11.100;2022-11-21T19:56:14;10.50;95.40
40556;DHT22;26250;45.422;11.100;2022-11-21T19:58:57;10.50;95.50
40556;DHT22;26250;45.422;11.100;2022-11-21T20:01:49;10.50;95.60
40556;DHT22;26250;45.422;11.100;2022-11-21T20:04:43;10.50;95.30
40556;DHT22;26250;45.422;11.100;2022-11-21T20:07:47;10.60;95.40
40556;DHT22;26250;45.422;11.100;2022-11-21T20:15:07;10.60;95.50
40556;DHT22;26250;45.422;11.100;2022-11-21T20:17:55;10.50;95.30
40556;DHT22;26250;45.422;11.100;2022-11-21T20:25:00;10.60;94.90
40556;DHT22;26250;45.422;11.100;2022-11-21T20:27:51;10.60;94.90
40556;DHT22;26250;45.422;11.100;2022-11-21T20:30:21;10.60;94.70
40556;DHT22;26250;45.422;11.100;2022-11-21T20:37:22;10.60;94.50
40556;DHT22;26250;45.422;11.100;2022-11-21T20:39:58;10.60;94.30
40556;DHT22;26250;45.422;11.100;2022-11-21T20:43:03;10.60;94.20
40556;DHT22;26250;45.422;11.100;2022-11-21T20:45:37;10.70;94.10
40556;DHT22;26250;45.422;11.100;2022-11-21T20:48:40;10.70;94.20
40556;DHT22;26250;45.422;11.100;2022-11-21T20:51:16;10.70;94.90
40556;DHT22;26250;45.422;11.100;2022-11-21T20:54:20;10.70;95.20
40556;DHT22;26250;45.422;11.100;2022-11-21T20:56:48;10.60;94.90
40556;DHT22;26250;45.422;11.100;2022-11-21T20:59:15;10.60;94.80
40556;DHT22;26250;45.422;11.100;2022-11-21T21:01:43;10.60;95.30
40556;DHT22;26250;45.422;11.100;2022-11-21T21:04:14;10.60;95.40
40556;DHT22;26250;45.422;11.100;2022-11-21T21:06:42;10.60;95.70
40556;DHT22;26250;45.422;11.100;2022-11-21T21:09:10;10.70;96.10
40556;DHT22;26250;45.422;11.100;2022-11-21T21:11:38;10.60;96.20
40556;DHT22;26250;45.422;11.100;2022-11-21T21:14:21;10.60;96.70
40556;DHT22;26250;45.422;11.100;2022-11-21T21:16:49;10.60;96.30
40556;DHT22;26250;45.422;11.100;2022-11-21T21:19:18;10.50;96.80
40556;DHT22;26250;45.422;11.100;2022-11-21T21:21:49;10.50;96.80
40556;DHT22;26250;45.422;11.100;2022-11-21T21:24:19;10.60;97.60
40556;DHT22;26250;45.422;11.100;2022-11-21T21:26:47;10.60;97.60
40556;DHT22;26250;45.422;11.100;2022-11-21T21:29:19;10.60;97.60
40556;DHT22;26250;45.422;11.100;2022-11-21T21:31:47;10.60;97.40
40556;DHT22;26250;45.422;11.100;2022-11-21T21:34:19;10.70;97.60
40556;DHT22;26250;45.422;11.100;2022-11-21T21:36:48;10.70;97.60
40556;DHT22;26250;45.422;11.100;2022-11-21T21:39:17;10.60;97.60
40556;DHT22;26250;45.422;11.100;2022-11-21T21:41:50;10.60;97.10
40556;DHT22;26250;45.422;11.100;2022-11-21T21:44:18;10.50;97.40
40556;DHT22;26250;45.422;11.100;2022-11-21T21:46:46;10.50;97.30
40556;DHT22;26250;45.422;11.100;2022-11-21T21:49:14;10.40;97.10
40556;DHT22;26250;45.422;11.100;2022-11-21T21:51:42;10.50;97.60
40556;DHT22;26250;45.422;11.100;2022-11-21T21:54:16;10.40;97.80
40556;DHT22;26250;45.422;11.100;2022-11-21T21:56:44;10.40;98.00
40556;DHT22;26250;45.422;11.100;2022-11-21T22:30:02;10.30;98.20
40556;DHT22;26250;45.422;11.100;2022-11-21T22:32:29;10.40;97.40
40556;DHT22;26250;45.422;11.100;2022-11-21T22:34:56;10.30;97.60
40556;DHT22;26250;45.422;11.100;2022-11-21T22:37:23;10.30;97.30
40556;DHT22;26250;45.422;11.100;2022-11-21T22:39:50;10.20;97.80
40556;DHT22;26250;45.422;11.100;2022-11-21T22:42:17;10.20;97.80
40556;DHT22;26250;45.422;11.100;2022-11-21T22:44:43;10.20;97.30
40556;DHT22;26250;45.422;11.100;2022-11-21T22:47:10;10.20;97.50
40556;DHT22;26250;45.422;11.100;2022-11-21T22:49:37;10.20;97.30
40556;DHT22;26250;45.422;11.100;2022-11-21T22:52:04;10.30;97.40
40556;DHT22;26250;45.422;11.100;2022-11-21T22:54:31;10.30;97.40
40556;DHT22;26250;45.422;11.100;2022-11-21T22:56:58;10.30;97.40
40556;DHT22;26250;45.422;11.100;2022-11-21T22:59:25;10.30;97.30
40556;DHT22;26250;45.422;11.100;2022-11-21T23:01:51;10.20;97.50
40556;DHT22;26250;45.422;11.100;2022-11-21T23:04:18;10.20;97.00
40556;DHT22;26250;45.422;11.100;2022-11-21T23:06:45;10.30;96.80
